Time;durP1;ratioP1;P1;durP2;ratioP2;P2;SDS_P1;SDS_P2;PMS_P1;PMS_P2;Temp;Humidity;BMP_temperature;BMP_pressure;BME280_temperature;BME280_humidity;BME280_pressure;Samples;Min_cycle;Max_cycle;Signal;HPM_P1;HPM_P2
2023/11/26 00:00:34;;;;;;;4.70;2.30;;;2.10;99.90;;;-141.84;100.00;79677.06;5011484;28;20760;-63
2023/11/26 00:03:06;;;;;;;2.47;1.57;;;2.10;99.90;;;-141.84;100.00;64387.81;5008612;28;20234;-63
2023/11/26 00:05:39;;;;;;;3.63;1.80;;;;;;;-141.84;100.00;55714.84;5011598;28;20184;-63
2023/11/26 00:08:17;;;;;;;1.53;1.43;;;;;;;-141.84;99.27;50467.75;5011467;28;20353;-63
2023/11/26 00:10:46;;;;;;;2.70;1.63;;;;;;;-141.84;99.68;50729.94;5011187;28;20233;-64
2023/11/26 00:13:24;;;;;;;3.17;1.50;;;;;;;-141.84;98.84;46798.88;5011170;28;20729;-63
2023/11/26 00:15:55;;;;;;;1.80;1.40;;;;;;;-141.84;100.00;51254.38;5011351;28;20310;-64
2023/11/26 00:18:28;;;;;;;2.90;1.40;;;;;;;-141.84;99.20;48894.97;5011168;28;20313;-64
2023/11/26 00:21:18;;;;;;;2.97;1.20;;;;;;;-141.84;99.34;46798.88;5010752;28;20224;-63
2023/11/26 00:23:46;;;;;;;2.13;1.67;;;;;;;-141.84;100.00;52041.16;5010811;28;20520;-62
2023/11/26 00:26:15;;;;;;;1.73;1.37;;;;;;;-141.84;100.00;56502.53;5011376;28;20710;-62
2023/11/26 00:28:45;;;;;;;2.63;1.33;;;;;;;-141.84;99.75;51254.38;5001588;28;20658;-64
2023/11/26 00:31:14;;;;;;;3.20;1.70;;;;;;;-141.84;100.00;52565.75;4991226;28;20730;-62
2023/11/26 00:33:48;;;;;;;1.80;1.50;;;;;;;-141.84;98.33;43395.16;4991525;28;20717;-64
2023/11/26 00:36:16;;;;;;;1.87;1.63;;;;;;;-141.84;96.94;34743.59;4991430;28;20227;-62
2023/11/26 00:38:46;;;;;;;1.70;1.30;;;;;;;-141.84;96.38;32377.75;4990940;28;20250;-62
2023/11/26 00:41:14;;;;;;;2.30;1.47;;;;;;;-141.84;95.81;29125.03;5004822;28;20703;-63
2023/11/26 00:43:43;;;;;;;3.00;1.40;;;;;;;-141.84;96.83;33001.72;5010388;28;20226;-63
2023/11/26 00:46:12;;;;;;;2.40;1.37;;;;;;;-141.84;98.13;39886.09;5010892;28;20262;-63
2023/11/26 00:48:40;;;;;;;2.40;1.50;;;;;;;-141.84;97.82;39892.22;5010967;28;20268;-62
2023/11/26 00:51:18;;;;;;;1.93;1.53;;;;;;;-141.84;96.96;35323.06;5010101;28;20233;-63
2023/11/26 00:53:48;;;;;;;1.97;1.30;;;;;;;-141.84;94.03;23842.03;5010039;28;20729;-63
2023/11/26 00:56:17;;;;;;;2.70;1.40;;;;;;;-141.84;93.32;22375.44;5011346;28;20218;-62
2023/11/26 00:58:46;;;;;;;1.60;1.30;;;;;;;-141.84;92.19;21263.19;5010348;28;20308;-63
2023/11/26 01:01:15;;;;;;;3.03;1.27;;;;;;;-141.84;92.70;21212.34;5010825;28;20227;-62
2023/11/26 01:03:44;;;;;;;1.70;1.30;;;;;;;-141.84;93.17;22125.31;4991195;28;20241;-62
2023/11/26 01:06:14;;;;;;;1.93;1.40;;;;;;;-141.84;91.20;20092.28;4991166;28;20234;-62
2023/11/26 01:08:42;;;;;;;3.07;1.40;;;;;;;-141.84;92.01;20594.34;4990738;28;20231;-63
2023/11/26 01:11:13;;;;;;;2.37;1.70;;;;;;;-141.84;93.00;21749.13;4991816;28;20277;-63
2023/11/26 01:13:42;;;;;;;2.83;1.60;;;;;;;-141.84;93.62;22403.94;5005437;28;20230;-63
2023/11/26 01:16:11;;;;;;;3.13;1.67;;;;;;;-141.84;93.94;23740.31;5014847;28;20269;-63
2023/11/26 01:18:40;;;;;;;2.47;1.60;;;;;;;-141.84;92.85;21663.72;5014821;28;20718;-63
2023/11/26 01:21:10;;;;;;;2.40;1.40;;;;;;;-141.84;92.12;21501.06;5013967;28;20296;-62
2023/11/26 01:23:40;;;;;;;3.23;1.40;;;;;;;-141.84;91.95;20565.88;5014144;28;20215;-63
2023/11/26 01:26:11;;;;;;;1.97;1.30;;;;;;;-141.84;93.71;22790.34;5014661;28;20536;-63
2023/11/26 01:28:39;;;;;;;1.63;1.33;;;;;;;-141.84;94.60;24694.56;5014489;28;20230;-62
2023/11/26 01:31:11;;;;;;;1.83;1.57;;;;;;;-141.84;93.50;22721.19;5014405;28;20784;-63
2023/11/26 01:33:39;;;;;;;1.20;1.10;;;;;;;-141.84;94.81;24855.31;5014650;28;20313;-62
2023/11/26 01:36:09;;;;;;;2.70;1.67;;;;;;;-141.84;93.87;23077.13;5014590;28;20230;-62
2023/11/26 01:38:39;;;;;;;2.80;1.60;;;;;;;-141.84;94.93;25844.44;5013763;28;20206;-64
2023/11/26 01:41:08;;;;;;;1.47;1.33;;;;;;;-141.84;95.46;27031.31;5002235;28;20262;-63
2023/11/26 01:43:37;;;;;;;1.57;1.47;;;;;;;-141.84;95.83;29542.66;5007917;28;20226;-64
2023/11/26 01:46:08;;;;;;;1.97;1.37;;;;;;;-141.84;96.00;29349.13;5014149;28;20659;-63
2023/11/26 01:48:38;;;;;;;1.53;1.33;;;;;;;-141.84;97.30;36114.81;5013997;28;20238;-63
2023/11/26 01:51:10;;;;;;;1.53;1.30;;;;;;;-141.84;97.28;35098.59;5013516;28;20297;-62
2023/11/26 01:53:45;;;;;;;3.17;1.50;;;;;;;-141.84;98.30;41563.59;5013772;28;20201;-62
2023/11/26 01:56:14;;;;;;;2.43;1.50;;;;;;;-141.84;98.14;42086.81;5014528;28;20283;-63
2023/11/26 01:58:43;;;;;;;2.23;1.67;;;;;;;-141.84;96.54;34211.16;5013500;28;20226;-62
2023/11/26 02:01:14;;;;;;;3.30;1.47;;;;;;;-141.84;95.71;30003.16;5013700;28;20314;-62
2023/11/26 02:03:43;;;;;;;1.97;1.40;;;;;;;-141.84;97.69;36153.59;4994151;28;20233;-62
2023/11/26 02:06:12;;;;;;;2.00;1.40;;;;;;;-141.84;100.00;53615.19;4993632;28;20306;-63
2023/11/26 02:08:42;;;;;;;2.90;1.50;;;;;;;-141.84;100.00;61757.66;4994154;28;20318;-63
2023/11/26 02:11:11;;;;;;;2.50;1.50;;;;;;;-141.84;100.00;61231.81;4994598;28;20189;-63
2023/11/26 02:13:46;;;;;;;1.87;1.53;;;;;;;-141.84;100.00;65703.56;5007781;28;20226;-63
2023/11/26 02:16:15;;;;;;;1.83;1.40;;;;;;;-141.84;100.00;68599.69;5013441;28;20233;-63
2023/11/26 02:18:43;;;;;;;1.77;1.40;;;;;;;-141.84;100.00;73870.81;5013354;28;20386;-63
2023/11/26 02:21:12;;;;;;;2.50;1.80;;;;;;;-141.84;100.00;77564.72;5012349;28;20312;-63
2023/11/26 02:23:45;;;;;;;1.70;1.37;;;;;;;-141.84;100.00;72552.38;5013220;28;20253;-63
2023/11/26 02:26:15;;;;;;;2.70;1.40;;;;;;;-141.84;100.00;74662.09;5012678;28;20194;-62
2023/11/26 02:28:44;;;;;;;1.83;1.50;;;;;;;-141.84;100.00;82319.06;4993695;28;20809;-63
2023/11/26 02:31:13;;;;;;;1.40;1.30;;;;;;;-141.84;100.00;87872.91;4993491;28;20255;-63
2023/11/26 02:33:42;;;;;;;2.30;1.70;;;;;;;-141.84;100.00;84698.34;4993783;28;20228;-62
2023/11/26 02:36:25;;;;;;;3.33;1.70;;;;;;;-141.84;100.00;84169.50;4993296;28;20286;-65
2023/11/26 02:38:55;;;;;;;2.10;1.67;;;;;;;-141.84;100.00;84962.78;4993707;28;20235;-62
2023/11/26 02:41:26;;;;;;;1.47;1.30;;;;;;;-141.84;100.00;85227.25;5007530;28;20246;-64
2023/11/26 02:43:54;;;;;;;1.87;1.53;;;;;;;-141.84;100.00;85756.25;5013142;28;20202;-63
2023/11/26 02:46:23;;;;;;;1.90;1.47;;;;;;;-141.84;100.00;82319.06;5012795;28;20229;-62
2023/11/26 02:48:51;;;;;;;1.80;1.30;;;;;;;-141.84;100.00;83376.34;5012741;28;20643;-62
2023/11/26 02:51:20;;;;;;;2.30;1.40;;;;;;;-141.84;100.00;84169.50;5011779;28;20418;-63
2023/11/26 02:53:48;;;;;;;6.50;1.67;;;;;;;-141.84;100.00;81262.06;5012762;28;20228;-62
2023/11/26 02:56:17;;;;;;;2.23;1.50;;;;;;;-141.84;100.00;83905.09;5013290;28;20266;-62
2023/11/26 02:58:47;;;;;;;2.30;1.50;;;;;;;-141.84;100.00;85227.25;5012854;28;20332;-63
2023/11/26 03:01:19;;;;;;;3.13;1.80;;;;;;;-141.84;100.00;86285.31;5012525;28;20254;-63
2023/11/26 03:03:48;;;;;;;4.00;1.63;;;;;;;-141.84;100.00;85491.75;4992994;28;20238;-63
2023/11/26 03:06:22;;;;;;;1.90;1.43;;;;;;;-141.84;100.00;86020.75;4992742;28;20231;-63
2023/11/26 03:08:59;;;;;;;2.33;1.63;;;;;;;-141.84;100.00;87343.63;4993109;28;20223;-63
2023/11/26 03:14:17;;;;;;;2.57;1.80;;;;;;;-141.84;100.00;84698.34;5012374;28;20230;-62
2023/11/26 03:16:46;;;;;;;2.27;1.70;;;;;;;-141.84;100.00;80733.66;5011912;28;20624;-62
2023/11/26 03:19:15;;;;;;;2.87;1.90;;;;;;;-141.84;100.00;82319.06;5012093;28;20238;-63
2023/11/26 03:21:44;;;;;;;4.03;1.50;;;;;;;-141.84;100.00;82847.66;5012272;28;20606;-63
2023/11/26 03:24:15;;;;;;;2.70;1.77;;;;;;;-141.84;100.00;87608.25;5012025;28;20282;-63
2023/11/26 03:26:43;;;;;;;2.53;1.70;;;;;;;-141.84;100.00;83376.34;5006894;28;20778;-62
2023/11/26 03:29:12;;;;;;;3.23;2.00;;;;;;;-141.84;100.00;79148.88;4992709;28;20250;-63
2023/11/26 03:31:44;;;;;;;1.87;1.37;;;;;;;-141.84;100.00;82847.66;4992421;28;20330;-63
2023/11/26 03:34:13;;;;;;;1.97;1.57;;;;;;;-141.84;100.00;83640.72;4992227;28;20240;-63
2023/11/26 03:36:42;;;;;;;3.17;2.10;;;;;;;-141.84;100.00;81526.28;4991820;28;20227;-62
2023/11/26 03:39:12;;;;;;;1.67;1.53;;;;;;;-141.84;100.00;78092.72;4992007;28;20308;-63
2023/11/26 03:41:40;;;;;;;2.23;1.70;;;;;;;-141.84;100.00;82319.06;5008163;28;20600;-63
2023/11/26 03:44:09;;;;;;;2.70;1.60;;;;;;;-141.84;100.00;89196.38;5010771;28;20580;-63
2023/11/26 03:46:40;;;;;;;3.50;1.70;;;;;;;-141.84;100.00;90785.09;5011213;28;20219;-63
2023/11/26 03:49:10;;;;;;;3.50;1.70;;;;;;;-141.84;100.00;92109.53;5011445;28;20223;-62
2023/11/26 03:51:38;;;;;;;4.87;1.73;;;;;;;-141.84;100.00;90785.09;5014620;28;20257;-62
2023/11/26 03:54:07;;;;;;;3.90;1.70;;;;;;;-141.84;100.00;89725.88;5010717;28;20273;-63
2023/11/26 03:56:36;;;;;;;2.10;1.43;;;;;;;-141.84;100.00;87343.63;5010706;28;20314;-62
2023/11/26 03:59:04;;;;;;;2.10;1.40;;;;;;;-141.84;100.00;79941.19;5011782;28;20289;-63
2023/11/26 04:01:33;;;;;;;3.20;1.93;;;;;;;-141.84;100.00;78092.72;5011324;28;20222;-62
2023/11/26 04:04:02;;;;;;;2.27;1.50;;;;;;;-141.84;100.00;80733.66;5011731;28;20226;-63
2023/11/26 04:06:32;;;;;;;1.50;1.40;;;;;;;-141.84;100.00;78620.75;5011343;28;20293;-63
2023/11/26 04:09:00;;;;;;;2.17;1.90;;;;;;;-141.84;100.00;77300.78;5011193;28;20226;-62
2023/11/26 04:11:29;;;;;;;2.60;1.33;;;;;;;-141.84;100.00;73607.09;5010870;28;20257;-62
2023/11/26 04:13:57;;;;;;;2.97;1.40;;;;;;;-141.84;100.00;59391.97;5011556;28;20264;-62
2023/11/26 04:16:26;;;;;;;1.70;1.10;;;;;;;-141.84;100.00;57553.00;5011142;28;20331;-63
2023/11/26 04:18:56;;;;;;;1.37;1.10;;;;;;;-141.84;99.74;53615.19;5011515;28;20235;-63
2023/11/26 04:21:24;;;;;;;1.70;1.20;;;;;;;-141.84;99.97;52565.75;5011238;28;20308;-63
2023/11/26 04:23:54;;;;;;;2.13;1.30;;;;;;;-141.84;98.75;46275.03;5010859;28;20753;-64
2023/11/26 04:26:22;;;;;;;1.90;1.20;;;;;;;-141.84;99.56;50729.94;5009992;28;20218;-63
2023/11/26 04:29:02;;;;;;;2.60;1.27;;;;;;;-141.84;98.80;47846.78;5011733;28;20187;-63
2023/11/26 04:31:30;;;;;;;1.93;1.47;;;;;;;-141.84;98.55;46275.03;5010815;28;20226;-61
2023/11/26 04:34:00;;;;;;;3.13;1.70;;;;;;;-141.84;97.80;42086.81;5011121;28;20710;-62
2023/11/26 04:36:29;;;;;;;1.37;1.27;;;;;;;-141.84;96.65;36149.50;5011064;28;20746;-62
2023/11/26 04:38:59;;;;;;;2.90;1.40;;;;;;;-141.84;96.27;33026.19;5010526;28;20315;-62
2023/11/26 04:41:27;;;;;;;2.03;1.20;;;;;;;-141.84;94.81;27357.13;5010871;28;20316;-63
2023/11/26 04:43:56;;;;;;;2.37;1.50;;;;;;;-141.84;95.26;27821.41;5011291;28;20204;-62
2023/11/26 04:46:25;;;;;;;1.70;1.50;;;;;;;-141.84;95.47;30172.28;5010778;28;20318;-62
2023/11/26 04:48:53;;;;;;;1.30;1.20;;;;;;;-141.84;94.72;26054.09;5009948;28;20663;-63
2023/11/26 04:51:22;;;;;;;2.23;1.30;;;;;;;-141.84;96.26;32165.72;5010730;28;20307;-63
2023/11/26 04:53:50;;;;;;;2.33;1.40;;;;;;;-141.84;97.01;35176.13;5010353;28;20226;-62
2023/11/26 04:56:20;;;;;;;1.70;1.40;;;;;;;-141.84;95.01;28792.97;5010709;28;20259;-62
2023/11/26 04:58:49;;;;;;;1.47;1.10;;;;;;;-141.84;92.83;22517.81;5011312;28;20588;-62
2023/11/26 05:01:19;;;;;;;2.37;1.40;;;;;;;-141.84;91.52;20742.75;5010169;28;20236;-62
2023/11/26 05:03:47;;;;;;;2.37;1.60;;;;;;;-141.84;90.79;20208.13;5010711;28;20230;-63
2023/11/26 05:06:16;;;;;;;2.67;1.23;;;;;;;-141.84;90.72;19943.91;5010462;28;20725;-63
2023/11/26 05:08:44;;;;;;;1.77;1.40;;;;;;;-141.84;91.30;20494.75;5010001;28;20305;-63
2023/11/26 05:11:13;;;;;;;3.60;1.77;;;;;;;-141.84;91.46;20653.28;5010632;28;20254;-62
2023/11/26 05:13:43;;;;;;;2.57;1.90;;;;;;;-141.84;91.08;20336.19;5010350;28;20232;-62
2023/11/26 05:16:11;;;;;;;2.13;1.43;;;;;;;-141.84;90.43;19917.50;5010465;28;20665;-64
2023/11/26 05:18:40;;;;;;;2.17;1.63;;;;;;;-141.84;90.99;20151.22;5010598;28;20277;-63
2023/11/26 05:21:09;;;;;;;2.40;1.50;;;;;;;-141.84;90.71;20065.84;5010675;28;20616;-63
2023/11/26 05:23:37;;;;;;;2.07;1.80;;;;;;;-141.84;92.55;21633.22;5010185;28;20325;-62
2023/11/26 05:26:06;;;;;;;2.90;1.73;;;;;;;-141.84;92.52;21669.81;5010383;28;20290;-63
2023/11/26 05:28:35;;;;;;;4.17;1.83;;;;;;;-141.84;91.80;20954.16;4990693;28;20227;-63
2023/11/26 05:31:05;;;;;;;2.50;1.53;;;;;;;-141.84;91.79;20783.41;4990630;28;20714;-64
2023/11/26 05:33:33;;;;;;;2.97;2.00;;;;;;;-141.84;92.40;21558.00;5006494;28;20229;-63
2023/11/26 05:36:05;;;;;;;3.50;2.00;;;;;;;-141.84;92.73;21688.13;5010743;28;20306;-63
2023/11/26 05:38:33;;;;;;;2.43;1.83;;;;;;;-141.84;91.72;20874.88;5010034;28;20273;-62
2023/11/26 05:41:02;;;;;;;2.73;2.20;;;;;;;-141.84;92.49;21547.81;5009373;28;20214;-63
2023/11/26 05:43:30;;;;;;;2.70;2.20;;;;;;;-141.84;92.81;21924.00;5004457;28;20238;-62
2023/11/26 05:45:58;;;;;;;3.47;2.50;;;;;;;-141.84;92.59;21474.63;5009902;28;20317;-63
2023/11/26 05:48:28;;;;;;;3.83;3.00;;;;;;;-141.84;93.48;22513.75;5008973;28;20224;-63
2023/11/26 05:50:57;;;;;;;6.07;3.50;;;;;;;-141.84;94.17;24409.69;5009377;28;20805;-63
2023/11/26 05:53:26;;;;;;;5.10;3.73;;;;;;;-141.84;95.41;26835.84;5012672;28;20226;-63
2023/11/26 05:55:55;;;;;;;4.47;3.70;;;;;;;-141.84;94.74;25781.34;5010525;28;20199;-62
2023/11/26 05:58:23;;;;;;;4.67;3.70;;;;;;;-141.84;94.69;26212.88;5008765;28;20261;-63
2023/11/26 06:00:51;;;;;;;5.20;4.10;;;;;;;-141.84;95.49;27896.78;5012099;28;20254;-63
2023/11/26 06:03:20;;;;;;;6.53;4.30;;;;;;;-141.84;95.29;27163.66;5013279;28;20726;-63
2023/11/26 06:05:51;;;;;;;5.13;4.40;;;;;;;-141.84;94.17;24008.84;5013678;28;20488;-62
2023/11/26 06:08:20;;;;;;;6.03;4.40;;;;;;;-141.84;95.00;25374.28;5014361;28;20187;-62
2023/11/26 06:10:48;;;;;;;4.93;3.83;;;;;;;-141.84;96.96;30993.59;5013967;28;20278;-63
2023/11/26 06:13:17;;;;;;;5.93;4.30;;;;;;;-141.84;97.99;37856.06;5012981;28;20227;-63
2023/11/26 06:15:45;;;;;;;6.77;4.40;;;;;;;-141.84;99.24;45751.28;5013666;28;20288;-62
2023/11/26 06:18:14;;;;;;;7.10;4.73;;;;;;;-141.84;100.00;52565.75;5013326;28;20581;-63
2023/11/26 06:20:43;;;;;;;5.57;5.00;;;;;;;-141.84;97.46;38474.75;5013421;28;20593;-62
2023/11/26 06:23:13;;;;;;;5.90;4.80;;;;;;;-141.84;98.06;39998.44;5014299;28;20223;-63
2023/11/26 06:25:42;;;;;;;5.17;4.67;;;;;;;-141.84;98.32;41825.19;5013598;28;20246;-63
2023/11/26 06:28:13;;;;;;;5.70;5.20;;;;;;;-141.84;98.38;43395.16;5012158;28;20760;-63
2023/11/26 06:30:42;;;;;;;5.93;4.90;;;;;;;-141.84;99.11;46275.03;5013636;28;20575;-63
2023/11/26 06:33:10;;;;;;;5.57;5.07;;;;;;;-141.84;98.70;43656.88;5013006;28;20254;-62
2023/11/26 06:35:39;;;;;;;6.50;5.13;;;;;;;-141.84;99.27;47846.78;5013442;28;20402;-62
2023/11/26 06:38:07;;;;;;;7.17;5.40;;;;;;;-141.84;100.00;52303.44;5013656;28;20230;-61
2023/11/26 06:40:38;;;;;;;5.23;4.70;;;;;;;-141.84;100.00;57815.66;5003630;28;20302;-62
2023/11/26 06:43:06;;;;;;;6.30;4.87;;;;;;;-141.84;100.00;65177.19;5002317;28;20227;-63
2023/11/26 06:45:35;;;;;;;7.10;5.07;;;;;;;-141.84;100.00;68336.31;5012640;28;20230;-62
2023/11/26 06:48:04;;;;;;;6.87;5.47;;;;;;;-141.84;100.00;71497.94;5012991;28;20226;-63
2023/11/26 06:50:36;;;;;;;6.07;5.27;;;;;;;-141.84;100.00;70443.78;5013147;28;20701;-62
2023/11/26 06:53:04;;;;;;;5.63;5.03;;;;;;;-141.84;100.00;67809.63;5010731;28;20274;-63
2023/11/26 06:55:33;;;;;;;5.50;4.60;;;;;;;-141.84;100.00;61494.72;4993081;28;20228;-62
2023/11/26 06:58:02;;;;;;;6.07;5.10;;;;;;;-141.84;100.00;65177.19;4992864;28;20603;-63
2023/11/26 07:00:31;;;;;;;6.63;4.53;;;;;;;-141.84;99.27;50992.13;5012212;28;20231;-63
2023/11/26 07:03:00;;;;;;;4.80;4.40;;;;;;;-141.84;96.55;34207.09;5012378;28;20266;-63
2023/11/26 07:05:28;;;;;;;5.83;4.20;;;;;;;-141.84;94.58;26029.69;5012601;28;20242;-62
2023/11/26 07:07:57;;;;;;;5.27;4.20;;;;;;;-141.84;94.81;25339.66;5013161;28;20198;-63
2023/11/26 07:10:25;;;;;;;5.00;4.33;;;;;;;-141.84;95.15;26182.34;5012382;28;20250;-62
2023/11/26 07:12:55;;;;;;;6.90;4.73;;;;;;;-141.84;95.01;26573.22;5010831;28;20305;-62
2023/11/26 07:15:25;;;;;;;4.80;4.20;;;;;;;-141.84;92.49;22113.13;5012151;28;20261;-63
2023/11/26 07:17:54;;;;;;;5.07;4.20;;;;;;;-141.84;93.37;22363.25;5012676;28;20245;-62
2023/11/26 07:20:22;;;;;;;7.57;5.30;;;;;;;-141.84;95.13;26147.75;5012721;28;20206;-62
2023/11/26 07:22:51;;;;;;;6.03;4.77;;;;;;;-141.84;93.55;23121.88;5013031;28;20318;-62
2023/11/26 07:25:20;;;;;;;5.67;4.50;;;;;;;-141.84;95.71;26839.94;5011941;28;20297;-62
2023/11/26 07:27:48;;;;;;;5.23;4.73;;;;;;;-141.84;97.10;33854.22;5011474;28;20777;-62
2023/11/26 07:30:17;;;;;;;5.50;4.53;;;;;;;-141.84;98.71;42348.44;5011512;28;20285;-63
2023/11/26 07:32:50;;;;;;;7.67;5.03;;;;;;;-141.84;99.72;48632.88;5011844;28;20238;-64
2023/11/26 07:35:19;;;;;;;6.73;5.33;;;;;;;-141.84;100.00;58603.75;5012581;28;20191;-63
2023/11/26 07:37:47;;;;;;;6.07;5.03;;;;;;;-141.84;100.00;56502.53;5012341;28;20656;-63
2023/11/26 07:40:16;;;;;;;7.27;5.13;;;;;;;-141.84;100.00;62546.50;5011516;28;20724;-63
2023/11/26 07:42:44;;;;;;;7.53;5.53;;;;;;;-141.84;100.00;69126.50;5011283;28;20790;-63
2023/11/26 07:45:13;;;;;;;6.23;5.63;;;;;;;-141.84;100.00;69653.38;5011826;28;20550;-63
2023/11/26 07:47:42;;;;;;;7.27;5.37;;;;;;;-141.84;100.00;72816.03;5012163;28;20290;-63
2023/11/26 07:50:12;;;;;;;6.53;5.60;;;;;;;-141.84;100.00;75717.34;4997228;28;20262;-63
2023/11/26 07:52:40;;;;;;;6.07;5.43;;;;;;;-141.84;100.00;75453.50;5010975;28;20319;-63
2023/11/26 07:55:12;;;;;;;7.03;5.33;;;;;;;-141.84;100.00;79941.19;5010940;28;20258;-63
2023/11/26 07:57:42;;;;;;;6.60;5.30;;;;;;;-141.84;100.00;76772.88;5010158;28;20246;-63
2023/11/26 08:00:14;;;;;;;6.73;5.47;;;;;;;-141.84;100.00;74925.88;5017110;28;20305;-63
2023/11/26 08:02:42;;;;;;;5.80;5.10;;;;;;;-141.84;100.00;79677.06;5010769;28;20780;-63
2023/11/26 08:05:18;;;;;;;5.57;4.87;;;;;;;-141.84;100.00;73343.38;5010673;28;20294;-63
2023/11/26 08:07:47;;;;;;;6.87;5.23;;;;;;;-141.84;100.00;67283.00;5011612;28;20214;-62
2023/11/26 08:10:20;;;;;;;6.30;4.87;;;;;;;-141.84;100.00;64124.72;5011202;28;20280;-62
2023/11/26 08:12:50;;;;;;;7.73;6.33;;;;;;;-141.84;98.45;50205.56;5011149;28;20325;-63
2023/11/26 08:15:20;;;;;;;5.53;4.80;;;;;;;-141.84;93.54;24368.97;5011207;28;20234;-63
2023/11/26 08:17:50;;;;;;;7.03;4.53;;;;;;;-141.84;93.72;22961.19;5011783;28;20295;-63
2023/11/26 08:20:21;;;;;;;8.27;5.33;;;;;;;-141.84;95.44;27603.50;5012012;28;20206;-63
2023/11/26 08:22:51;;;;;;;7.03;4.97;;;;;;;-141.84;95.44;28179.88;5011436;28;20225;-63
2023/11/26 08:25:23;;;;;;;6.40;4.43;;;;;;;-141.84;94.20;25999.16;5010930;28;20238;-64
2023/11/26 08:27:52;;;;;;;5.93;5.07;;;;;;;-141.84;93.45;23565.34;5010644;28;20801;-63
2023/11/26 08:30:31;;;;;;;5.57;4.60;;;;;;;-141.84;91.56;20903.34;5011094;28;20254;-63
2023/11/26 08:33:02;;;;;;;6.67;5.03;;;;;;;-141.84;89.73;19580.13;5011128;28;20285;-64
2023/11/26 08:35:32;;;;;;;6.63;4.77;;;;;;;-141.84;89.75;19687.84;5010494;28;20755;-62
2023/11/26 08:38:02;;;;;;;6.23;5.10;;;;;;;-141.84;86.94;18960.34;5011931;28;20226;-62
2023/11/26 08:40:33;;;;;;;9.00;6.00;;;;;;;-141.84;86.50;18935.97;5002310;28;20259;-63
2023/11/26 08:43:03;;;;;;;6.47;5.73;;;;;;;-141.84;87.93;19098.50;4999712;28;20227;-62
2023/11/26 08:45:32;;;;;;;7.63;6.00;;;;;;;-141.84;87.66;19143.22;5010872;28;20232;-63
2023/11/26 08:48:01;;;;;;;8.10;5.63;;;;;;;-141.84;87.27;19025.38;5011011;28;20230;-63
2023/11/26 08:50:31;;;;;;;6.83;4.73;;;;;;;-141.84;87.19;19076.16;5011101;28;20541;-63
2023/11/26 08:53:02;;;;;;;6.97;4.90;;;;;;;-141.84;84.67;18805.91;5011299;28;20199;-63
2023/11/26 08:55:31;;;;;;;5.87;4.97;;;;;;;-141.84;82.99;18665.72;4997316;28;20771;-63
2023/11/26 08:58:01;;;;;;;6.50;5.20;;;;;;;-141.84;83.80;18704.31;4990626;28;20463;-63
2023/11/26 09:00:35;;;;;;;7.27;6.03;;;;;;;-141.84;84.76;18795.75;4991232;28;20232;-62
2023/11/26 09:03:06;;;;;;;7.43;6.30;;;;;;;-141.84;82.26;18684.00;5007907;28;20226;-63
2023/11/26 09:05:36;;;;;;;7.10;5.80;;;;;;;-141.84;80.42;18643.38;5009983;28;20237;-63
2023/11/26 09:08:04;;;;;;;6.83;5.70;;;;;;;-141.84;81.87;18651.50;5011255;28;20203;-62
2023/11/26 09:10:34;;;;;;;7.70;5.30;;;;;;;-141.84;80.66;18643.38;5010361;28;20233;-62
2023/11/26 09:13:03;;;;;;;8.27;5.67;;;;;;;-141.84;79.54;18612.91;5010081;28;20258;-64
2023/11/26 09:15:33;;;;;;;5.37;4.67;;;;;;;-141.84;78.53;18596.66;5010406;28;20234;-62
2023/11/26 09:18:04;;;;;;;5.90;4.50;;;;;;;-141.84;79.75;18647.44;5010565;28;20231;-63
2023/11/26 09:20:35;;;;;;;7.23;4.20;;;;;;;-141.84;78.71;18612.91;5010478;28;20214;-62
2023/11/26 09:23:07;;;;;;;7.50;4.77;;;;;;;-141.84;77.90;18610.88;5011109;28;20284;-61
2023/11/26 09:25:36;;;;;;;5.67;4.90;;;;;;;-141.84;77.62;18584.47;5010189;28;20296;-62
2023/11/26 09:28:05;;;;;;;6.20;4.40;;;;;;;-141.84;80.44;18623.06;5009716;28;20292;-62
2023/11/26 09:30:33;;;;;;;5.67;3.93;;;;;;;-141.84;79.89;18578.38;5010280;28;20241;-62
2023/11/26 09:33:02;;;;;;;9.93;4.33;;;;;;;-141.84;80.41;18641.34;5010293;28;20294;-63
2023/11/26 09:35:31;;;;;;;5.17;4.63;;;;;;;-141.84;80.42;18692.13;5011274;28;20294;-63
2023/11/26 09:37:59;;;;;;;5.27;4.10;;;;;;;-141.84;80.23;18645.41;5014810;28;20287;-63
2023/11/26 09:40:29;;;;;;;5.77;4.10;;;;;;;-141.84;79.53;18659.63;5013741;28;20226;-61
2023/11/26 09:42:59;;;;;;;5.90;4.57;;;;;;;-141.84;78.93;18675.88;5013696;28;20233;-61
2023/11/26 09:45:28;;;;;;;5.37;4.40;;;;;;;-141.84;78.11;18643.38;5013900;28;20233;-61
2023/11/26 09:47:56;;;;;;;4.43;4.03;;;;;;;-141.84;74.69;18625.09;5014250;28;20234;-62
2023/11/26 09:50:25;;;;;;;6.10;4.13;;;;;;;-141.84;75.36;18619.00;5013788;28;20263;-62
2023/11/26 09:52:54;;;;;;;5.20;4.20;;;;;;;-141.84;76.19;18598.69;5014827;28;20205;-63
2023/11/26 09:55:23;;;;;;;4.87;3.77;;;;;;;-141.84;73.54;18606.81;5013580;28;20308;-62
2023/11/26 09:57:53;;;;;;;6.37;3.90;;;;;;;-141.84;74.78;18596.66;5013539;28;20320;-62
2023/11/26 10:00:21;;;;;;;5.07;3.53;;;;;;;-141.84;75.03;18598.69;5013763;28;20229;-62
2023/11/26 10:03:00;;;;;;;4.43;3.13;;;;;;;-141.84;75.28;18637.28;5013413;28;20763;-62
2023/11/26 10:05:30;;;;;;;5.57;3.80;;;;;;;-141.84;73.89;18614.94;5012191;28;20372;-62
2023/11/26 10:07:59;;;;;;;4.83;3.30;;;;;;;-141.84;70.16;18590.56;5014273;28;20214;-63
2023/11/26 10:10:28;;;;;;;5.27;3.00;;;;;;;-141.84;70.84;18598.69;5013638;28;20239;-63
2023/11/26 10:12:59;;;;;;;6.70;3.90;;;;;;;-141.84;72.18;18594.63;5015035;28;20226;-62
2023/11/26 10:15:31;;;;;;;4.90;3.87;;;;;;;-141.84;73.85;18606.81;5014004;28;20245;-63
2023/11/26 10:18:03;;;;;;;4.10;3.70;;;;;;;-141.84;74.26;18586.50;5013820;28;20260;-62
2023/11/26 10:20:34;;;;;;;4.33;3.37;;;;;;;-141.84;75.21;18608.84;5013755;28;20221;-62
2023/11/26 10:23:03;;;;;;;4.80;3.20;;;;;;;-141.84;75.99;18641.34;5013738;28;20248;-63
2023/11/26 10:25:32;;;;;;;3.63;3.00;;;;;;;-141.84;76.67;18614.94;5012445;28;20668;-62
2023/11/26 10:28:02;;;;;;;3.80;3.50;;;;;;;-141.84;76.19;18602.75;5013511;28;20237;-62
2023/11/26 10:30:34;;;;;;;3.53;3.03;;;;;;;-141.84;76.87;18627.13;5013775;28;20241;-63
2023/11/26 10:33:04;;;;;;;5.13;3.10;;;;;;;-141.84;74.83;18623.06;5013272;28;20275;-63
2023/11/26 10:35:48;;;;;;;3.13;2.77;;;;;;;-141.84;71.22;18645.41;5012920;28;20786;-63
2023/11/26 10:38:17;;;;;;;4.23;3.03;;;;;;;-141.84;71.66;18610.88;5013845;28;20194;-63
2023/11/26 10:40:46;;;;;;;3.10;2.80;;;;;;;-141.84;70.49;18614.94;5001543;28;20293;-63
2023/11/26 10:43:18;;;;;;;4.77;2.50;;;;;;;-141.84;71.46;18598.69;4993486;28;20234;-62
2023/11/26 10:45:47;;;;;;;2.83;2.33;;;;;;;-141.84;70.91;18633.22;4993608;28;20586;-61
2023/11/26 10:48:16;;;;;;;3.27;2.30;;;;;;;-141.84;71.12;18592.59;4998512;28;20272;-62
2023/11/26 10:51:00;;;;;;;3.57;2.90;;;;;;;-141.84;69.96;18621.03;5013074;28;20223;-62
2023/11/26 10:53:50;;;;;;;4.20;2.60;;;;;;;-141.84;70.90;18627.13;5000206;28;20655;-62
2023/11/26 10:56:22;;;;;;;4.63;3.00;;;;;;;-141.84;69.96;18608.84;5007339;28;20186;-62
2023/11/26 10:58:58;;;;;;;3.80;2.53;;;;;;;-141.84;68.37;18623.06;5013247;28;20317;-62
2023/11/26 11:01:29;;;;;;;2.50;2.20;;;;;;;-141.84;68.06;18643.38;5012461;28;20218;-63
2023/11/26 11:03:59;;;;;;;2.20;2.00;;;;;;;-141.84;67.63;18623.06;5012830;28;20310;-63
2023/11/26 11:06:28;;;;;;;3.60;2.10;;;;;;;-141.84;65.63;18623.06;5012015;28;20238;-62
2023/11/26 11:08:57;;;;;;;2.43;2.03;;;;;;;-141.84;65.25;18608.84;5012718;28;20232;-63
2023/11/26 11:11:35;;;;;;;3.57;2.03;;;;;;;-141.84;66.93;18635.25;5011775;28;20211;-62
2023/11/26 11:14:05;;;;;;;4.00;2.40;;;;;;;-141.84;67.68;18619.00;5010067;28;20614;-62
2023/11/26 11:16:34;;;;;;;2.63;2.17;;;;;;;-141.84;67.25;18606.81;5012486;28;20234;-63
2023/11/26 11:19:03;;;;;;;4.73;2.10;;;;;;;-141.84;66.26;18651.50;5012410;28;20230;-62
2023/11/26 11:21:32;;;;;;;3.63;2.27;;;;;;;-141.84;63.50;18635.25;5012481;28;20257;-63
2023/11/26 11:24:01;;;;;;;4.67;3.00;;;;;;;-141.84;63.68;18684.00;5007535;28;20237;-63
2023/11/26 11:26:29;;;;;;;4.90;4.00;;;;;;;-141.84;64.70;18669.78;5001279;28;20218;-62
2023/11/26 11:29:00;;;;;;;3.60;2.90;;;;;;;-141.84;64.94;18657.59;4993194;28;20741;-61